Etusivu
METAR-TAF:

METAR-TAF

Lentoasemat :

Joensuu, Suomi

Joensuun lentoasema

Leveyspiiri: 62-40N, Pituuspiiri: 029-38E, korkeus merenpinnasta: 119 m

Tämänhetkinen sää

Tämä raportti tehtiin 16 minuuttia sitten, kello 09.50 UTC
Tuuli 5 kn etelästä/lounaasta, vaihdellen etelän/kaakon ja luoteen välillä
Lämpötila 9°C
Kosteus 31%
Ilmanpaine 1019 hPa
Näkyvyys 10 km tai enemmän
ei pilviä alle 1500 m:ssä eikä cumulonimbus-pilviä

METAR: EFJO 270950Z AUTO 21005KT 160V310 CAVOK 09/M07 Q1019

Aika: 13:06 (10:06 UTC)

Sääennuste

Tämä raportti tehtiin 22 tuntia ja 36 minuuttia sitten, kello 11.30 UTC
Ennuste voimassa 26. päivästä klo 12 UTC - 26. päivään klo 16 UTC
Tuuli 10 kn luoteesta
Näkyvyys 10 km tai enemmän
ei pilviä alle 1500 m:ssä eikä cumulonimbus-pilviä

TAF: EFJO 261130Z 2612/2616 31010KT CAVOK

Säähavainnot ja -ennusteet yli 4000 lentoasemalta (METAR- ja TAF-raportit).

Käytössä olevat sääasemat on merkitty karttaan keltaisilla ja punaisilla pisteillä.

Aseta hiiri pisteen päälle nähdäksesi sääaseman nimen.

Klikkaa sitten nähdäksesi säähavainnot ja -ennusteet.

Kartan vaihtaminen: klikkaa mustalla rastilla varustettuja vihreitä pisteitä, niin voit zoomata sisään; viivalla varustettua vihreää pistettä, niin voit zoomata ulos tai vihreitä nuolia, niin pääset viereisille kartoille.


METAR-TAF: